Matina, Brazil
Current Conditions -  °F | °C
As of 7:00 AM on Friday 24 Oct 2014 (Local Time) from SBQV Reporting Station
Haze Haze  
Wind Chill: 61°   Ceiling: 400
Heat Index: 61°   Visibility: 2.1mi
Dew Point: 61°   Wind: 10mph
Humidity: 100%   Direction: 140°SE
Pressure: 30.15"   Gusts: NA
Location:  13.91°S, 42.85°W
Report Text: SBQV 241000Z 14009KT 3500 1000SE BR BKN004 16/16 Q1021
Loading
Personal Weather Stations






























Interactive Weather Map
Tropical Storm Tracking
New forecast layout! Learn more

10-Day Weather Forecast

Advertisements
Track Severe Weather on mobile